Terminal Aerodrome Forecast
Issued by NWS Charleston, WV

Current Version | Previous Version | Text Only | Print | Product List | Glossary Off
Versions: 1 2 3 4 5 6 7 8 9 10 11 12 13 14 15 16 17 18 19 20 21 22 23 24 25 26 27

658
FTUS41 KRLX 011512 AAC
TAFPKB
TAF AMD
KPKB 011512Z 0115/0212 28016G34KT 3SM TSRA OVC030CB
     FM011700 26014G30KT 4SM SHRA VCTS OVC035CB
     FM012100 27013G25KT P6SM BKN040
     FM020300 27012G22KT P6SM BKN028=

USA.gov is the U.S. government's official web portal to all federal, state and local government web resources and services.